sensor_id;sensor_type;location;lat;lon;timestamp;P1;durP1;ratioP1;P2;durP2;ratioP2
63320;SDS011;49449;48.800;9.534;2023-06-14T00:02:10;5.10;;;3.70;;
63320;SDS011;49449;48.800;9.534;2023-06-14T00:04:39;4.35;;;3.95;;
63320;SDS011;49449;48.800;9.534;2023-06-14T00:07:07;5.43;;;4.70;;
63320;SDS011;49449;48.800;9.534;2023-06-14T00:09:37;9.18;;;5.30;;
63320;SDS011;49449;48.800;9.534;2023-06-14T00:12:05;4.82;;;4.30;;
63320;SDS011;49449;48.800;9.534;2023-06-14T00:14:35;5.45;;;4.70;;
63320;SDS011;49449;48.800;9.534;2023-06-14T00:17:03;5.63;;;5.10;;
63320;SDS011;49449;48.800;9.534;2023-06-14T00:19:31;5.18;;;4.65;;
63320;SDS011;49449;48.800;9.534;2023-06-14T00:22:03;5.13;;;4.63;;
63320;SDS011;49449;48.800;9.534;2023-06-14T00:24:31;4.93;;;4.40;;
63320;SDS011;49449;48.800;9.534;2023-06-14T00:26:59;4.45;;;3.60;;
63320;SDS011;49449;48.800;9.534;2023-06-14T00:29:26;6.15;;;3.90;;
63320;SDS011;49449;48.800;9.534;2023-06-14T00:31:54;4.63;;;4.00;;
63320;SDS011;49449;48.800;9.534;2023-06-14T00:34:22;6.25;;;4.25;;
63320;SDS011;49449;48.800;9.534;2023-06-14T00:36:50;6.53;;;4.28;;
63320;SDS011;49449;48.800;9.534;2023-06-14T00:39:19;6.13;;;4.20;;
63320;SDS011;49449;48.800;9.534;2023-06-14T00:41:47;6.18;;;4.93;;
63320;SDS011;49449;48.800;9.534;2023-06-14T00:44:15;7.60;;;4.45;;
63320;SDS011;49449;48.800;9.534;2023-06-14T00:46:44;5.63;;;4.97;;
63320;SDS011;49449;48.800;9.534;2023-06-14T00:49:13;5.05;;;4.55;;
63320;SDS011;49449;48.800;9.534;2023-06-14T00:51:42;5.95;;;4.50;;
63320;SDS011;49449;48.800;9.534;2023-06-14T00:54:10;4.72;;;4.20;;
63320;SDS011;49449;48.800;9.534;2023-06-14T00:56:39;4.65;;;3.95;;
63320;SDS011;49449;48.800;9.534;2023-06-14T00:59:08;4.75;;;4.25;;
63320;SDS011;49449;48.800;9.534;2023-06-14T01:01:37;5.50;;;4.57;;
63320;SDS011;49449;48.800;9.534;2023-06-14T01:04:05;4.35;;;3.63;;
63320;SDS011;49449;48.800;9.534;2023-06-14T01:06:33;4.60;;;3.75;;
63320;SDS011;49449;48.800;9.534;2023-06-14T01:09:09;4.53;;;3.60;;
63320;SDS011;49449;48.800;9.534;2023-06-14T01:11:50;4.32;;;3.80;;
63320;SDS011;49449;48.800;9.534;2023-06-14T01:14:27;5.13;;;4.63;;
63320;SDS011;49449;48.800;9.534;2023-06-14T01:16:56;4.22;;;3.67;;
63320;SDS011;49449;48.800;9.534;2023-06-14T01:19:26;3.95;;;3.55;;
63320;SDS011;49449;48.800;9.534;2023-06-14T01:21:55;4.28;;;3.88;;
63320;SDS011;49449;48.800;9.534;2023-06-14T01:24:24;4.35;;;3.88;;
63320;SDS011;49449;48.800;9.534;2023-06-14T01:26:58;5.38;;;4.05;;
63320;SDS011;49449;48.800;9.534;2023-06-14T01:29:27;4.50;;;3.55;;
63320;SDS011;49449;48.800;9.534;2023-06-14T01:32:01;6.88;;;4.10;;
63320;SDS011;49449;48.800;9.534;2023-06-14T01:34:29;6.53;;;4.55;;
63320;SDS011;49449;48.800;9.534;2023-06-14T01:36:57;7.57;;;4.40;;
63320;SDS011;49449;48.800;9.534;2023-06-14T01:39:29;5.55;;;3.97;;
63320;SDS011;49449;48.800;9.534;2023-06-14T01:41:58;6.88;;;4.70;;
63320;SDS011;49449;48.800;9.534;2023-06-14T01:44:27;5.47;;;4.30;;
63320;SDS011;49449;48.800;9.534;2023-06-14T01:46:56;6.13;;;4.05;;
63320;SDS011;49449;48.800;9.534;2023-06-14T01:49:25;4.85;;;4.28;;
63320;SDS011;49449;48.800;9.534;2023-06-14T01:51:53;6.07;;;4.10;;
63320;SDS011;49449;48.800;9.534;2023-06-14T01:54:21;5.93;;;4.20;;
63320;SDS011;49449;48.800;9.534;2023-06-14T01:56:50;4.45;;;3.47;;
63320;SDS011;49449;48.800;9.534;2023-06-14T01:59:18;4.97;;;4.53;;
63320;SDS011;49449;48.800;9.534;2023-06-14T02:01:46;6.78;;;4.72;;
63320;SDS011;49449;48.800;9.534;2023-06-14T02:04:14;5.38;;;4.53;;
63320;SDS011;49449;48.800;9.534;2023-06-14T02:06:42;4.55;;;4.13;;
63320;SDS011;49449;48.800;9.534;2023-06-14T02:09:09;6.07;;;4.68;;
63320;SDS011;49449;48.800;9.534;2023-06-14T02:11:37;5.18;;;3.90;;
63320;SDS011;49449;48.800;9.534;2023-06-14T02:14:06;4.68;;;4.22;;
63320;SDS011;49449;48.800;9.534;2023-06-14T02:16:38;5.90;;;5.30;;
63320;SDS011;49449;48.800;9.534;2023-06-14T02:19:06;6.35;;;4.10;;
63320;SDS011;49449;48.800;9.534;2023-06-14T02:21:33;7.07;;;4.55;;
63320;SDS011;49449;48.800;9.534;2023-06-14T02:24:01;8.18;;;6.05;;
63320;SDS011;49449;48.800;9.534;2023-06-14T02:26:29;8.90;;;4.72;;
63320;SDS011;49449;48.800;9.534;2023-06-14T02:28:58;6.53;;;4.53;;
63320;SDS011;49449;48.800;9.534;2023-06-14T02:31:27;6.45;;;5.07;;
63320;SDS011;49449;48.800;9.534;2023-06-14T02:33:55;6.93;;;4.80;;
63320;SDS011;49449;48.800;9.534;2023-06-14T02:36:23;5.75;;;4.80;;
63320;SDS011;49449;48.800;9.534;2023-06-14T02:38:51;4.95;;;3.97;;
63320;SDS011;49449;48.800;9.534;2023-06-14T02:41:20;4.72;;;4.20;;
63320;SDS011;49449;48.800;9.534;2023-06-14T02:43:48;5.10;;;4.35;;
63320;SDS011;49449;48.800;9.534;2023-06-14T02:46:16;4.82;;;3.60;;
63320;SDS011;49449;48.800;9.534;2023-06-14T02:48:45;4.38;;;3.83;;
63320;SDS011;49449;48.800;9.534;2023-06-14T02:51:13;5.53;;;4.53;;
63320;SDS011;49449;48.800;9.534;2023-06-14T02:53:41;7.57;;;5.20;;
63320;SDS011;49449;48.800;9.534;2023-06-14T02:56:10;5.80;;;4.90;;
63320;SDS011;49449;48.800;9.534;2023-06-14T02:58:37;6.63;;;4.20;;
63320;SDS011;49449;48.800;9.534;2023-06-14T03:01:05;4.95;;;4.03;;
63320;SDS011;49449;48.800;9.534;2023-06-14T03:03:34;5.88;;;5.15;;
63320;SDS011;49449;48.800;9.534;2023-06-14T03:06:03;5.80;;;4.47;;
63320;SDS011;49449;48.800;9.534;2023-06-14T03:08:31;4.35;;;3.95;;
63320;SDS011;49449;48.800;9.534;2023-06-14T03:11:04;5.35;;;4.00;;
63320;SDS011;49449;48.800;9.534;2023-06-14T03:13:33;4.90;;;4.40;;
63320;SDS011;49449;48.800;9.534;2023-06-14T03:16:01;5.50;;;5.00;;
63320;SDS011;49449;48.800;9.534;2023-06-14T03:18:29;4.70;;;4.03;;
63320;SDS011;49449;48.800;9.534;2023-06-14T03:21:03;4.68;;;4.13;;
63320;SDS011;49449;48.800;9.534;2023-06-14T03:23:32;5.07;;;4.57;;
63320;SDS011;49449;48.800;9.534;2023-06-14T03:26:00;5.50;;;4.57;;
63320;SDS011;49449;48.800;9.534;2023-06-14T03:28:28;5.05;;;4.55;;
63320;SDS011;49449;48.800;9.534;2023-06-14T03:30:55;5.85;;;4.70;;
63320;SDS011;49449;48.800;9.534;2023-06-14T03:33:23;5.80;;;5.07;;
63320;SDS011;49449;48.800;9.534;2023-06-14T03:35:51;4.75;;;4.35;;
63320;SDS011;49449;48.800;9.534;2023-06-14T03:38:20;4.47;;;3.85;;
63320;SDS011;49449;48.800;9.534;2023-06-14T03:40:48;4.57;;;3.90;;
63320;SDS011;49449;48.800;9.534;2023-06-14T03:43:16;4.15;;;3.83;;
63320;SDS011;49449;48.800;9.534;2023-06-14T03:45:44;4.00;;;3.60;;
63320;SDS011;49449;48.800;9.534;2023-06-14T03:48:12;5.00;;;4.60;;
63320;SDS011;49449;48.800;9.534;2023-06-14T03:50:40;5.20;;;4.78;;
63320;SDS011;49449;48.800;9.534;2023-06-14T03:53:09;5.28;;;3.97;;
63320;SDS011;49449;48.800;9.534;2023-06-14T03:55:38;4.22;;;3.80;;
63320;SDS011;49449;48.800;9.534;2023-06-14T03:58:21;5.55;;;5.05;;
63320;SDS011;49449;48.800;9.534;2023-06-14T04:00:49;4.55;;;4.10;;
63320;SDS011;49449;48.800;9.534;2023-06-14T04:03:16;5.78;;;4.88;;
63320;SDS011;49449;48.800;9.534;2023-06-14T04:05:46;4.90;;;4.40;;
63320;SDS011;49449;48.800;9.534;2023-06-14T04:08:15;4.95;;;4.30;;
63320;SDS011;49449;48.800;9.534;2023-06-14T04:10:47;5.13;;;4.63;;
63320;SDS011;49449;48.800;9.534;2023-06-14T04:13:14;5.00;;;4.50;;
63320;SDS011;49449;48.800;9.534;2023-06-14T04:15:43;4.93;;;4.53;;
63320;SDS011;49449;48.800;9.534;2023-06-14T04:18:12;5.40;;;4.90;;
63320;SDS011;49449;48.800;9.534;2023-06-14T04:20:40;4.90;;;4.47;;
63320;SDS011;49449;48.800;9.534;2023-06-14T04:23:11;5.10;;;4.60;;
63320;SDS011;49449;48.800;9.534;2023-06-14T04:25:40;4.93;;;4.13;;
63320;SDS011;49449;48.800;9.534;2023-06-14T04:28:12;4.57;;;4.18;;
63320;SDS011;49449;48.800;9.534;2023-06-14T04:30:42;5.13;;;4.63;;
63320;SDS011;49449;48.800;9.534;2023-06-14T04:33:10;6.38;;;4.65;;
63320;SDS011;49449;48.800;9.534;2023-06-14T04:35:38;4.90;;;4.43;;
63320;SDS011;49449;48.800;9.534;2023-06-14T04:38:06;6.78;;;5.07;;
63320;SDS011;49449;48.800;9.534;2023-06-14T04:40:35;6.07;;;5.35;;
63320;SDS011;49449;48.800;9.534;2023-06-14T04:43:08;5.85;;;5.35;;
63320;SDS011;49449;48.800;9.534;2023-06-14T04:45:40;5.10;;;4.60;;
63320;SDS011;49449;48.800;9.534;2023-06-14T04:48:11;5.72;;;4.10;;
63320;SDS011;49449;48.800;9.534;2023-06-14T04:50:39;6.10;;;5.50;;
63320;SDS011;49449;48.800;9.534;2023-06-14T04:53:07;5.15;;;4.30;;
63320;SDS011;49449;48.800;9.534;2023-06-14T04:55:35;5.55;;;4.70;;
63320;SDS011;49449;48.800;9.534;2023-06-14T04:58:03;5.15;;;4.65;;
63320;SDS011;49449;48.800;9.534;2023-06-14T05:00:31;7.57;;;5.38;;
63320;SDS011;49449;48.800;9.534;2023-06-14T05:03:00;5.03;;;4.43;;
63320;SDS011;49449;48.800;9.534;2023-06-14T05:05:29;6.07;;;4.88;;
63320;SDS011;49449;48.800;9.534;2023-06-14T05:07:56;5.43;;;4.93;;
63320;SDS011;49449;48.800;9.534;2023-06-14T05:10:24;5.85;;;5.03;;
63320;SDS011;49449;48.800;9.534;2023-06-14T05:12:52;7.00;;;5.85;;
63320;SDS011;49449;48.800;9.534;2023-06-14T05:15:20;6.57;;;5.38;;
63320;SDS011;49449;48.800;9.534;2023-06-14T05:20:22;5.10;;;4.10;;
63320;SDS011;49449;48.800;9.534;2023-06-14T05:22:52;4.93;;;4.53;;
63320;SDS011;49449;48.800;9.534;2023-06-14T05:25:21;5.30;;;4.80;;
63320;SDS011;49449;48.800;9.534;2023-06-14T05:27:49;5.22;;;4.55;;
63320;SDS011;49449;48.800;9.534;2023-06-14T05:30:16;6.63;;;5.03;;
63320;SDS011;49449;48.800;9.534;2023-06-14T05:32:44;6.00;;;4.55;;
63320;SDS011;49449;48.800;9.534;2023-06-14T05:35:12;6.53;;;5.47;;
63320;SDS011;49449;48.800;9.534;2023-06-14T05:37:42;8.88;;;5.30;;
63320;SDS011;49449;48.800;9.534;2023-06-14T05:40:10;9.70;;;5.97;;
63320;SDS011;49449;48.800;9.534;2023-06-14T05:42:39;5.45;;;4.93;;
63320;SDS011;49449;48.800;9.534;2023-06-14T05:45:07;6.50;;;5.80;;
63320;SDS011;49449;48.800;9.534;2023-06-14T05:47:35;6.03;;;5.20;;
63320;SDS011;49449;48.800;9.534;2023-06-14T05:50:03;6.65;;;4.90;;
63320;SDS011;49449;48.800;9.534;2023-06-14T05:52:31;7.60;;;4.60;;
63320;SDS011;49449;48.800;9.534;2023-06-14T05:55:01;6.20;;;4.43;;
63320;SDS011;49449;48.800;9.534;2023-06-14T05:57:29;5.20;;;4.50;;
63320;SDS011;49449;48.800;9.534;2023-06-14T05:59:57;6.00;;;5.30;;
63320;SDS011;49449;48.800;9.534;2023-06-14T06:02:24;5.93;;;4.93;;
63320;SDS011;49449;48.800;9.534;2023-06-14T06:04:52;6.32;;;4.75;;
63320;SDS011;49449;48.800;9.534;2023-06-14T06:07:20;5.47;;;4.82;;
63320;SDS011;49449;48.800;9.534;2023-06-14T06:09:48;5.68;;;5.18;;
63320;SDS011;49449;48.800;9.534;2023-06-14T06:12:17;7.10;;;5.55;;
63320;SDS011;49449;48.800;9.534;2023-06-14T06:14:45;5.65;;;4.57;;
63320;SDS011;49449;48.800;9.534;2023-06-14T06:17:13;5.13;;;4.63;;
63320;SDS011;49449;48.800;9.534;2023-06-14T06:19:40;5.45;;;4.43;;
63320;SDS011;49449;48.800;9.534;2023-06-14T06:22:08;5.97;;;4.38;;
63320;SDS011;49449;48.800;9.534;2023-06-14T06:24:36;5.65;;;4.55;;
63320;SDS011;49449;48.800;9.534;2023-06-14T06:27:04;5.50;;;4.72;;
63320;SDS011;49449;48.800;9.534;2023-06-14T06:29:35;5.20;;;4.07;;
63320;SDS011;49449;48.800;9.534;2023-06-14T06:32:03;5.50;;;5.05;;
63320;SDS011;49449;48.800;9.534;2023-06-14T06:34:31;5.28;;;4.80;;
63320;SDS011;49449;48.800;9.534;2023-06-14T06:37:00;5.10;;;4.20;;
63320;SDS011;49449;48.800;9.534;2023-06-14T06:39:28;7.15;;;4.75;;
63320;SDS011;49449;48.800;9.534;2023-06-14T06:41:55;7.32;;;5.65;;
63320;SDS011;49449;48.800;9.534;2023-06-14T06:44:23;6.30;;;5.25;;
63320;SDS011;49449;48.800;9.534;2023-06-14T06:46:52;5.70;;;5.20;;
63320;SDS011;49449;48.800;9.534;2023-06-14T06:49:20;6.43;;;4.70;;
63320;SDS011;49449;48.800;9.534;2023-06-14T06:51:58;6.47;;;5.10;;
63320;SDS011;49449;48.800;9.534;2023-06-14T06:54:26;5.80;;;4.55;;
63320;SDS011;49449;48.800;9.534;2023-06-14T06:56:54;4.95;;;4.45;;
63320;SDS011;49449;48.800;9.534;2023-06-14T06:59:22;4.80;;;4.30;;
63320;SDS011;49449;48.800;9.534;2023-06-14T07:01:50;5.82;;;4.50;;
63320;SDS011;49449;48.800;9.534;2023-06-14T07:04:21;6.80;;;5.07;;
63320;SDS011;49449;48.800;9.534;2023-06-14T07:06:49;5.80;;;5.03;;
63320;SDS011;49449;48.800;9.534;2023-06-14T07:09:16;5.40;;;3.78;;
63320;SDS011;49449;48.800;9.534;2023-06-14T07:11:46;5.07;;;4.05;;
63320;SDS011;49449;48.800;9.534;2023-06-14T07:14:15;4.82;;;3.83;;
63320;SDS011;49449;48.800;9.534;2023-06-14T07:16:42;4.78;;;4.28;;
63320;SDS011;49449;48.800;9.534;2023-06-14T07:19:10;7.55;;;4.60;;
63320;SDS011;49449;48.800;9.534;2023-06-14T07:21:39;5.07;;;4.50;;
63320;SDS011;49449;48.800;9.534;2023-06-14T07:24:07;5.00;;;3.97;;
63320;SDS011;49449;48.800;9.534;2023-06-14T07:26:35;5.10;;;4.43;;
63320;SDS011;49449;48.800;9.534;2023-06-14T07:29:03;5.35;;;3.70;;
63320;SDS011;49449;48.800;9.534;2023-06-14T07:31:31;5.78;;;4.40;;
63320;SDS011;49449;48.800;9.534;2023-06-14T07:33:59;5.32;;;4.45;;
63320;SDS011;49449;48.800;9.534;2023-06-14T07:36:27;4.93;;;4.43;;
63320;SDS011;49449;48.800;9.534;2023-06-14T07:38:56;5.78;;;5.03;;
63320;SDS011;49449;48.800;9.534;2023-06-14T07:41:24;5.13;;;4.53;;
63320;SDS011;49449;48.800;9.534;2023-06-14T07:43:51;5.82;;;4.10;;
63320;SDS011;49449;48.800;9.534;2023-06-14T07:46:19;5.05;;;4.55;;
63320;SDS011;49449;48.800;9.534;2023-06-14T07:48:47;5.90;;;4.78;;
63320;SDS011;49449;48.800;9.534;2023-06-14T07:51:15;6.18;;;4.15;;
63320;SDS011;49449;48.800;9.534;2023-06-14T07:53:43;5.45;;;4.65;;
63320;SDS011;49449;48.800;9.534;2023-06-14T07:56:12;5.70;;;4.38;;
63320;SDS011;49449;48.800;9.534;2023-06-14T07:58:40;4.93;;;3.90;;
63320;SDS011;49449;48.800;9.534;2023-06-14T08:01:08;4.60;;;4.20;;
63320;SDS011;49449;48.800;9.534;2023-06-14T08:03:36;5.05;;;3.72;;
63320;SDS011;49449;48.800;9.534;2023-06-14T08:06:04;4.70;;;4.30;;
63320;SDS011;49449;48.800;9.534;2023-06-14T08:08:32;4.63;;;3.90;;
63320;SDS011;49449;48.800;9.534;2023-06-14T08:10:59;4.97;;;3.70;;
63320;SDS011;49449;48.800;9.534;2023-06-14T08:13:29;5.13;;;4.43;;
63320;SDS011;49449;48.800;9.534;2023-06-14T08:15:56;3.88;;;3.58;;
63320;SDS011;49449;48.800;9.534;2023-06-14T08:18:24;5.25;;;4.63;;
63320;SDS011;49449;48.800;9.534;2023-06-14T08:20:52;6.45;;;4.30;;
63320;SDS011;49449;48.800;9.534;2023-06-14T08:23:20;4.95;;;4.32;;
63320;SDS011;49449;48.800;9.534;2023-06-14T08:25:48;5.22;;;4.30;;
63320;SDS011;49449;48.800;9.534;2023-06-14T08:28:16;5.68;;;4.82;;
63320;SDS011;49449;48.800;9.534;2023-06-14T08:30:45;5.35;;;4.60;;
63320;SDS011;49449;48.800;9.534;2023-06-14T08:33:13;4.50;;;3.97;;
63320;SDS011;49449;48.800;9.534;2023-06-14T08:35:42;6.22;;;4.07;;
63320;SDS011;49449;48.800;9.534;2023-06-14T08:38:10;6.10;;;4.57;;
63320;SDS011;49449;48.800;9.534;2023-06-14T08:40:38;6.78;;;4.50;;
63320;SDS011;49449;48.800;9.534;2023-06-14T08:43:08;5.00;;;4.50;;
63320;SDS011;49449;48.800;9.534;2023-06-14T08:45:36;7.45;;;4.13;;
63320;SDS011;49449;48.800;9.534;2023-06-14T08:48:06;4.57;;;3.70;;
63320;SDS011;49449;48.800;9.534;2023-06-14T08:50:35;5.47;;;3.30;;
63320;SDS011;49449;48.800;9.534;2023-06-14T08:53:07;5.22;;;3.47;;
63320;SDS011;49449;48.800;9.534;2023-06-14T08:55:36;4.95;;;4.00;;
63320;SDS011;49449;48.800;9.534;2023-06-14T08:58:07;4.82;;;3.63;;
63320;SDS011;49449;48.800;9.534;2023-06-14T09:00:41;5.97;;;4.05;;
63320;SDS011;49449;48.800;9.534;2023-06-14T09:03:12;4.28;;;3.55;;
63320;SDS011;49449;48.800;9.534;2023-06-14T09:05:41;3.95;;;3.55;;
63320;SDS011;49449;48.800;9.534;2023-06-14T09:08:08;4.40;;;4.00;;
63320;SDS011;49449;48.800;9.534;2023-06-14T09:10:37;7.68;;;4.35;;
63320;SDS011;49449;48.800;9.534;2023-06-14T09:13:07;5.15;;;3.95;;
63320;SDS011;49449;48.800;9.534;2023-06-14T09:15:35;4.40;;;4.00;;
63320;SDS011;49449;48.800;9.534;2023-06-14T09:18:03;4.35;;;3.95;;
63320;SDS011;49449;48.800;9.534;2023-06-14T09:20:33;5.57;;;3.90;;
63320;SDS011;49449;48.800;9.534;2023-06-14T09:23:02;3.75;;;3.45;;
63320;SDS011;49449;48.800;9.534;2023-06-14T09:25:31;4.80;;;4.00;;
63320;SDS011;49449;48.800;9.534;2023-06-14T09:28:06;4.88;;;3.40;;
63320;SDS011;49449;48.800;9.534;2023-06-14T09:30:34;5.13;;;4.13;;
63320;SDS011;49449;48.800;9.534;2023-06-14T09:33:03;6.15;;;4.00;;
63320;SDS011;49449;48.800;9.534;2023-06-14T09:35:31;4.70;;;3.70;;
63320;SDS011;49449;48.800;9.534;2023-06-14T09:38:00;4.07;;;3.60;;
63320;SDS011;49449;48.800;9.534;2023-06-14T09:40:28;5.22;;;3.80;;
63320;SDS011;49449;48.800;9.534;2023-06-14T09:43:00;4.43;;;3.13;;
63320;SDS011;49449;48.800;9.534;2023-06-14T09:45:31;5.68;;;3.92;;
63320;SDS011;49449;48.800;9.534;2023-06-14T09:47:59;5.03;;;3.97;;
63320;SDS011;49449;48.800;9.534;2023-06-14T09:50:31;4.03;;;3.63;;
63320;SDS011;49449;48.800;9.534;2023-06-14T09:53:01;5.47;;;3.75;;
63320;SDS011;49449;48.800;9.534;2023-06-14T09:55:33;4.40;;;4.00;;
63320;SDS011;49449;48.800;9.534;2023-06-14T09:58:04;3.63;;;3.33;;
63320;SDS011;49449;48.800;9.534;2023-06-14T10:00:34;4.38;;;3.58;;
63320;SDS011;49449;48.800;9.534;2023-06-14T10:03:03;3.88;;;3.45;;
63320;SDS011;49449;48.800;9.534;2023-06-14T10:05:38;4.88;;;3.33;;
63320;SDS011;49449;48.800;9.534;2023-06-14T10:08:18;5.01;;;3.73;;
63320;SDS011;49449;48.800;9.534;2023-06-14T10:10:52;4.95;;;3.40;;
63320;SDS011;49449;48.800;9.534;2023-06-14T10:13:20;4.82;;;3.65;;
63320;SDS011;49449;48.800;9.534;2023-06-14T10:15:52;5.90;;;3.33;;
63320;SDS011;49449;48.800;9.534;2023-06-14T10:18:28;6.18;;;3.88;;
63320;SDS011;49449;48.800;9.534;2023-06-14T10:21:04;6.25;;;4.18;;
63320;SDS011;49449;48.800;9.534;2023-06-14T10:23:42;4.35;;;3.95;;
63320;SDS011;49449;48.800;9.534;2023-06-14T10:26:17;4.25;;;3.85;;
63320;SDS011;49449;48.800;9.534;2023-06-14T10:29:00;4.63;;;3.80;;
63320;SDS011;49449;48.800;9.534;2023-06-14T10:31:41;6.57;;;3.63;;
63320;SDS011;49449;48.800;9.534;2023-06-14T10:34:10;3.67;;;3.38;;
63320;SDS011;49449;48.800;9.534;2023-06-14T10:36:41;4.55;;;3.90;;
63320;SDS011;49449;48.800;9.534;2023-06-14T10:39:14;4.82;;;3.75;;
63320;SDS011;49449;48.800;9.534;2023-06-14T10:41:50;7.43;;;3.80;;
63320;SDS011;49449;48.800;9.534;2023-06-14T10:47:07;6.13;;;3.75;;
63320;SDS011;49449;48.800;9.534;2023-06-14T10:49:38;4.13;;;3.42;;
63320;SDS011;49449;48.800;9.534;2023-06-14T10:52:10;3.90;;;3.60;;
63320;SDS011;49449;48.800;9.534;2023-06-14T10:57:38;6.10;;;4.55;;
63320;SDS011;49449;48.800;9.534;2023-06-14T11:00:10;4.53;;;3.53;;
63320;SDS011;49449;48.800;9.534;2023-06-14T11:05:51;4.72;;;3.28;;
63320;SDS011;49449;48.800;9.534;2023-06-14T11:11:34;5.20;;;3.90;;
63320;SDS011;49449;48.800;9.534;2023-06-14T11:14:05;5.72;;;4.05;;
63320;SDS011;49449;48.800;9.534;2023-06-14T11:16:33;4.43;;;3.75;;
63320;SDS011;49449;48.800;9.534;2023-06-14T11:19:01;3.60;;;3.30;;
63320;SDS011;49449;48.800;9.534;2023-06-14T11:21:31;3.95;;;3.55;;
63320;SDS011;49449;48.800;9.534;2023-06-14T11:23:59;4.85;;;3.65;;
63320;SDS011;49449;48.800;9.534;2023-06-14T11:26:27;4.07;;;3.67;;
63320;SDS011;49449;48.800;9.534;2023-06-14T11:28:58;4.38;;;3.97;;
63320;SDS011;49449;48.800;9.534;2023-06-14T11:31:27;3.53;;;3.22;;
63320;SDS011;49449;48.800;9.534;2023-06-14T11:33:56;4.00;;;3.30;;
63320;SDS011;49449;48.800;9.534;2023-06-14T11:36:26;5.22;;;3.67;;
63320;SDS011;49449;48.800;9.534;2023-06-14T11:38:59;5.18;;;4.15;;
63320;SDS011;49449;48.800;9.534;2023-06-14T11:41:32;4.47;;;4.07;;
63320;SDS011;49449;48.800;9.534;2023-06-14T11:44:02;4.80;;;3.75;;
63320;SDS011;49449;48.800;9.534;2023-06-14T11:46:30;4.55;;;3.88;;
63320;SDS011;49449;48.800;9.534;2023-06-14T11:48:58;5.93;;;3.70;;
63320;SDS011;49449;48.800;9.534;2023-06-14T11:51:29;5.35;;;4.30;;
63320;SDS011;49449;48.800;9.534;2023-06-14T11:53:57;6.57;;;4.65;;
63320;SDS011;49449;48.800;9.534;2023-06-14T11:56:26;5.00;;;3.50;;
63320;SDS011;49449;48.800;9.534;2023-06-14T11:58:54;4.40;;;3.78;;
63320;SDS011;49449;48.800;9.534;2023-06-14T12:01:24;3.53;;;3.22;;
63320;SDS011;49449;48.800;9.534;2023-06-14T12:03:53;4.88;;;3.40;;
63320;SDS011;49449;48.800;9.534;2023-06-14T12:06:30;3.78;;;3.47;;
63320;SDS011;49449;48.800;9.534;2023-06-14T12:09:06;5.30;;;3.45;;
63320;SDS011;49449;48.800;9.534;2023-06-14T12:11:39;5.53;;;3.45;;
63320;SDS011;49449;48.800;9.534;2023-06-14T12:14:07;4.85;;;3.60;;
63320;SDS011;49449;48.800;9.534;2023-06-14T12:16:38;4.85;;;3.47;;
63320;SDS011;49449;48.800;9.534;2023-06-14T12:19:08;4.22;;;3.83;;
63320;SDS011;49449;48.800;9.534;2023-06-14T12:21:37;5.45;;;4.10;;
63320;SDS011;49449;48.800;9.534;2023-06-14T12:24:07;3.30;;;3.00;;
63320;SDS011;49449;48.800;9.534;2023-06-14T12:26:38;4.43;;;3.30;;
63320;SDS011;49449;48.800;9.534;2023-06-14T12:29:07;4.00;;;3.60;;
63320;SDS011;49449;48.800;9.534;2023-06-14T12:31:36;5.72;;;3.40;;
63320;SDS011;49449;48.800;9.534;2023-06-14T12:34:05;5.15;;;4.13;;
63320;SDS011;49449;48.800;9.534;2023-06-14T12:36:33;5.43;;;3.58;;
63320;SDS011;49449;48.800;9.534;2023-06-14T12:39:06;5.53;;;4.10;;
63320;SDS011;49449;48.800;9.534;2023-06-14T12:41:34;7.47;;;3.95;;
63320;SDS011;49449;48.800;9.534;2023-06-14T12:44:03;4.32;;;3.92;;
63320;SDS011;49449;48.800;9.534;2023-06-14T12:46:31;4.38;;;3.97;;
63320;SDS011;49449;48.800;9.534;2023-06-14T12:48:59;3.95;;;3.28;;
63320;SDS011;49449;48.800;9.534;2023-06-14T12:51:28;3.78;;;3.47;;
63320;SDS011;49449;48.800;9.534;2023-06-14T12:53:56;5.57;;;4.10;;
63320;SDS011;49449;48.800;9.534;2023-06-14T12:56:24;5.75;;;4.43;;
63320;SDS011;49449;48.800;9.534;2023-06-14T12:58:52;5.63;;;4.05;;
63320;SDS011;49449;48.800;9.534;2023-06-14T13:01:20;3.80;;;3.20;;
63320;SDS011;49449;48.800;9.534;2023-06-14T13:03:48;4.32;;;3.70;;
63320;SDS011;49449;48.800;9.534;2023-06-14T13:06:18;4.15;;;3.70;;
63320;SDS011;49449;48.800;9.534;2023-06-14T13:08:47;6.35;;;3.78;;
63320;SDS011;49449;48.800;9.534;2023-06-14T13:11:16;4.15;;;3.55;;
63320;SDS011;49449;48.800;9.534;2023-06-14T13:13:44;4.00;;;3.60;;
63320;SDS011;49449;48.800;9.534;2023-06-14T13:16:12;4.65;;;3.40;;
63320;SDS011;49449;48.800;9.534;2023-06-14T13:18:40;5.22;;;3.47;;
63320;SDS011;49449;48.800;9.534;2023-06-14T13:21:08;3.90;;;3.50;;
63320;SDS011;49449;48.800;9.534;2023-06-14T13:23:36;4.65;;;3.83;;
63320;SDS011;49449;48.800;9.534;2023-06-14T13:26:05;4.72;;;4.32;;
63320;SDS011;49449;48.800;9.534;2023-06-14T13:28:33;4.68;;;3.28;;
63320;SDS011;49449;48.800;9.534;2023-06-14T13:31:01;5.13;;;3.42;;
63320;SDS011;49449;48.800;9.534;2023-06-14T13:33:29;3.95;;;3.65;;
63320;SDS011;49449;48.800;9.534;2023-06-14T13:35:57;4.93;;;4.05;;
63320;SDS011;49449;48.800;9.534;2023-06-14T13:38:24;4.45;;;3.30;;
63320;SDS011;49449;48.800;9.534;2023-06-14T13:40:52;4.03;;;3.72;;
63320;SDS011;49449;48.800;9.534;2023-06-14T13:43:21;5.50;;;3.60;;
63320;SDS011;49449;48.800;9.534;2023-06-14T13:45:49;5.20;;;4.00;;
63320;SDS011;49449;48.800;9.534;2023-06-14T13:48:17;3.70;;;3.40;;
63320;SDS011;49449;48.800;9.534;2023-06-14T13:50:45;4.80;;;4.40;;
63320;SDS011;49449;48.800;9.534;2023-06-14T13:53:13;4.82;;;3.63;;
63320;SDS011;49449;48.800;9.534;2023-06-14T13:55:41;4.32;;;3.92;;
63320;SDS011;49449;48.800;9.534;2023-06-14T13:58:09;6.22;;;3.55;;
63320;SDS011;49449;48.800;9.534;2023-06-14T14:00:39;4.88;;;3.78;;
63320;SDS011;49449;48.800;9.534;2023-06-14T14:03:07;5.18;;;4.28;;
63320;SDS011;49449;48.800;9.534;2023-06-14T14:05:35;4.65;;;3.30;;
63320;SDS011;49449;48.800;9.534;2023-06-14T14:08:03;6.25;;;3.63;;
63320;SDS011;49449;48.800;9.534;2023-06-14T14:10:31;4.78;;;3.63;;
63320;SDS011;49449;48.800;9.534;2023-06-14T14:12:59;5.20;;;3.60;;
63320;SDS011;49449;48.800;9.534;2023-06-14T14:15:27;4.20;;;3.80;;
63320;SDS011;49449;48.800;9.534;2023-06-14T14:17:57;5.55;;;3.95;;
63320;SDS011;49449;48.800;9.534;2023-06-14T14:20:25;5.32;;;4.07;;
63320;SDS011;49449;48.800;9.534;2023-06-14T14:22:53;6.70;;;4.10;;
63320;SDS011;49449;48.800;9.534;2023-06-14T14:25:21;4.45;;;4.10;;
63320;SDS011;49449;48.800;9.534;2023-06-14T14:27:49;4.78;;;3.50;;
63320;SDS011;49449;48.800;9.534;2023-06-14T14:30:16;3.17;;;2.97;;
63320;SDS011;49449;48.800;9.534;2023-06-14T14:32:47;4.70;;;3.50;;
63320;SDS011;49449;48.800;9.534;2023-06-14T14:35:16;4.70;;;3.60;;
63320;SDS011;49449;48.800;9.534;2023-06-14T14:37:45;4.18;;;3.58;;
63320;SDS011;49449;48.800;9.534;2023-06-14T14:40:13;5.43;;;4.25;;
63320;SDS011;49449;48.800;9.534;2023-06-14T14:42:41;4.53;;;4.13;;
63320;SDS011;49449;48.800;9.534;2023-06-14T14:45:09;4.97;;;4.18;;
63320;SDS011;49449;48.800;9.534;2023-06-14T14:47:37;4.20;;;3.80;;
63320;SDS011;49449;48.800;9.534;2023-06-14T14:50:05;5.28;;;4.10;;
63320;SDS011;49449;48.800;9.534;2023-06-14T14:52:36;4.20;;;3.50;;
63320;SDS011;49449;48.800;9.534;2023-06-14T14:55:04;4.28;;;3.88;;
63320;SDS011;49449;48.800;9.534;2023-06-14T14:57:33;4.65;;;3.58;;
63320;SDS011;49449;48.800;9.534;2023-06-14T15:00:02;4.50;;;3.75;;
63320;SDS011;49449;48.800;9.534;2023-06-14T15:02:31;5.20;;;3.55;;
63320;SDS011;49449;48.800;9.534;2023-06-14T15:04:59;4.10;;;3.70;;
63320;SDS011;49449;48.800;9.534;2023-06-14T15:07:29;5.15;;;3.85;;
63320;SDS011;49449;48.800;9.534;2023-06-14T15:10:01;4.82;;;3.60;;
63320;SDS011;49449;48.800;9.534;2023-06-14T15:12:28;3.95;;;3.63;;
63320;SDS011;49449;48.800;9.534;2023-06-14T15:14:56;4.28;;;3.63;;